Tain, United Kingdom

7:39 AM BST on June 02, 2015 (GMT +0100)
10 Miles from the Coast. Near the Dornoch Firth | | Change Station
CLOSE
Current Station
Personal Weather Station
Location: Edderton, SCOTLAND
Elevation: 60 ft
Nearby Weather Stations

Elev 60 ft 57.84 °N, 4.18 °W | Updated 4 minutes ago

Mostly Cloudy
Mostly Cloudy
46.7 °F
Feels Like 43 °F
N
8.0
Wind Variable Wind from West
Gusts 12.0 mph

Today
High -- | Low -- °F
--% Chance of Precip.
Yesterday
High -- | Low -- °F
Precip. -- in
4:23 AM 10:04 PM
Full, 100% visible
Pressure 29.00 in
Visibility 6.2 miles
Clouds Few 1500 ft
Scattered Clouds 3000 ft
Mostly Cloudy 3500 ft
Windchill 43 °F
Dew Point 42 °F
Humidity 84%
Rainfall 0.00 in
Snow Depth Not available.
UV 0.0 out of 12
Pollen Not available.
Air Quality Not available.
Flu Activity Not available.
METAR EGPE 020620Z 25015KT 9999 FEW015 SCT030 BKN035 07/04 Q0982

More Conditions Fewer Conditions

Pressure 29.00 in
Visibility 6.2 miles
Clouds Few 1500 ft
Scattered Clouds 3000 ft
Mostly Cloudy 3500 ft
Windchill 43 °F
Dew Point 42 °F
Humidity 84%
Rainfall 0.00 in
Snow Depth Not available.
UV 0.0 out of 12
Pollen Not available.
Air Quality Not available.
Flu Activity Not available.
METAR EGPE 020620Z 25015KT 9999 FEW015 SCT030 BKN035 07/04 Q0982

More Conditions Fewer Conditions

10-Day Weather Forecast

Almanac

Astronomy

Jun. 02, 2015 Rise Set
Actual Time
Civil Twilight
Nautical Twilight
Astronomical Twilight
Moon
Length of Visible Light
Length of Day
Tomorrow will be .
, % of the Moon is Illuminated

Today's Extremes

Country Highs Country Lows

Community

WunderPhotos

Upload Photos

1,825,919 photos uploaded!

WunderBlogs® & News

Nearby

Air Quality

  Air Quality AQ Index Pollutant
Not available.

Snow Depth

Station Depth Elevation

Earthquake Activity

City Distance Mag. Time & Date
Minimum magnitude displayed is 2.5.

Coastal Water Temperatures

Place Temperature

Stations

Nearby Weather Stations

Station Location Temp. Windchill Dew Point Humidity Wind Precip. Elev Updated Type